Williamsburg, Iowa
Current Conditions -  °F | °C
As of 4:37 AM on Thursday 27 Nov 2014 (Local Time) from KCID Reporting Station
Overcast Overcast  
Wind Chill:   Ceiling: 1500
Heat Index: 19°   Visibility: 10mi
Dew Point: 15°   Wind: 17mph
Humidity: 85%   Direction: 300°WNW
Pressure: 30.37"   Gusts: NA
Location:  41.66°N, 92.01°W
Report Text: KCID 271037Z AUTO 30015KT 10SM OVC015 M07/M09 A3037 RMK AO2 UPE0959SNB0959E01 P0000 T10721094
Loading
Personal Weather Stations






























Interactive Weather Map New forecast layout! Learn more

10-Day Weather Forecast

Advertisements
Track Severe Weather on mobile